createdAt,value
2023-04-16T00:02:00.942Z,8.66
2023-04-16T00:04:28.183Z,8.90
2023-04-16T00:06:55.441Z,9.45
2023-04-16T00:09:22.472Z,8.86
2023-04-16T00:11:49.437Z,9.33
2023-04-16T00:14:16.509Z,9.20
2023-04-16T00:16:43.486Z,9.17
2023-04-16T00:19:10.847Z,9.20
2023-04-16T00:21:37.903Z,8.70
2023-04-16T00:24:04.863Z,8.83
2023-04-16T00:26:31.797Z,8.95
2023-04-16T00:28:58.897Z,9.08
2023-04-16T00:31:29.883Z,8.10
2023-04-16T00:33:57.275Z,8.19
2023-04-16T00:36:24.775Z,8.43
2023-04-16T00:38:51.724Z,9.16
2023-04-16T00:41:18.771Z,9.36
2023-04-16T00:43:45.777Z,8.59
2023-04-16T00:46:12.927Z,8.33
2023-04-16T00:48:40.750Z,8.14
2023-04-16T00:51:08.217Z,7.27
2023-04-16T00:53:35.626Z,7.23
2023-04-16T00:56:03.367Z,7.52
2023-04-16T00:58:30.889Z,7.94
2023-04-16T01:00:57.953Z,8.34
2023-04-16T01:03:27.695Z,8.45
2023-04-16T01:05:54.832Z,8.89
2023-04-16T01:08:22.180Z,8.76
2023-04-16T01:10:49.199Z,8.62
2023-04-16T01:13:16.228Z,8.23
2023-04-16T01:15:43.278Z,8.50
2023-04-16T01:18:17.120Z,8.97
2023-04-16T01:20:44.991Z,9.46
2023-04-16T01:23:11.977Z,9.62
2023-04-16T01:25:39.308Z,9.43
2023-04-16T01:28:06.623Z,9.47
2023-04-16T01:30:33.602Z,8.48
2023-04-16T01:33:14.779Z,9.00
2023-04-16T01:35:41.905Z,8.50
2023-04-16T01:38:09.114Z,8.35
2023-04-16T01:40:36.599Z,8.89
2023-04-16T01:43:03.946Z,8.65
2023-04-16T01:45:34.436Z,8.47
2023-04-16T01:48:01.556Z,8.69
2023-04-16T01:50:29.019Z,7.89
2023-04-16T01:52:55.995Z,7.04
2023-04-16T01:55:23.073Z,7.60
2023-04-16T01:57:50.885Z,7.45
2023-04-16T02:00:18.535Z,7.21
2023-04-16T02:02:45.949Z,6.88
2023-04-16T02:05:18.328Z,6.76
2023-04-16T02:07:46.915Z,6.73
2023-04-16T02:10:14.217Z,6.53
2023-04-16T02:12:41.205Z,7.11
2023-04-16T02:15:08.704Z,7.18
2023-04-16T02:17:36.019Z,7.94
2023-04-16T02:20:10.970Z,6.72
2023-04-16T02:23:07.777Z,8.05
2023-04-16T02:25:42.186Z,7.98
2023-04-16T02:28:11.818Z,8.30
2023-04-16T02:30:41.266Z,7.27
2023-04-16T02:33:09.528Z,8.23
2023-04-16T02:35:39.146Z,8.79
2023-04-16T02:38:06.515Z,8.77
2023-04-16T02:40:35.511Z,9.12
2023-04-16T02:43:02.508Z,9.24
2023-04-16T02:45:31.724Z,9.09
2023-04-16T02:47:59.034Z,7.43
2023-04-16T02:50:26.076Z,8.27
2023-04-16T02:52:53.181Z,8.08
2023-04-16T02:55:20.374Z,8.32
2023-04-16T02:57:47.308Z,8.73
2023-04-16T03:00:14.584Z,9.11
2023-04-16T03:02:42.649Z,8.57
2023-04-16T03:05:09.913Z,8.47
2023-04-16T03:07:39.194Z,9.18
2023-04-16T03:10:07.420Z,8.55
2023-04-16T03:12:34.371Z,8.03
2023-04-16T03:15:01.363Z,7.65
2023-04-16T03:17:28.581Z,8.22
2023-04-16T03:19:55.897Z,8.73
2023-04-16T03:22:23.102Z,8.57
2023-04-16T03:24:50.089Z,9.19
2023-04-16T03:27:17.047Z,8.64
2023-04-16T03:29:45.569Z,8.08
2023-04-16T03:32:12.806Z,8.91
2023-04-16T03:34:39.930Z,8.75
2023-04-16T03:37:06.970Z,8.29
2023-04-16T03:39:34.764Z,8.21
2023-04-16T03:42:02.390Z,8.30
2023-04-16T03:44:29.907Z,7.84
2023-04-16T03:46:57.128Z,7.36
2023-04-16T03:49:24.318Z,7.04
2023-04-16T03:51:52.232Z,7.98
2023-04-16T03:54:22.470Z,8.49
2023-04-16T03:56:57.123Z,9.14
2023-04-16T03:59:24.296Z,9.42
2023-04-16T04:01:51.406Z,9.03
2023-04-16T04:04:18.573Z,8.99
2023-04-16T04:06:46.694Z,9.25
2023-04-16T04:09:15.200Z,9.41
2023-04-16T04:11:42.877Z,9.54
2023-04-16T04:14:09.879Z,9.96
2023-04-16T04:16:36.944Z,8.77
2023-04-16T04:19:03.963Z,9.51
2023-04-16T04:21:31.758Z,9.50
2023-04-16T04:23:58.889Z,8.93
2023-04-16T04:26:25.875Z,8.56
2023-04-16T04:28:52.954Z,8.87
2023-04-16T04:31:20.060Z,8.75
2023-04-16T04:33:47.143Z,9.24
2023-04-16T04:36:14.206Z,9.01
2023-04-16T04:38:41.495Z,8.35
2023-04-16T04:41:08.515Z,8.55
2023-04-16T04:43:37.566Z,9.14
2023-04-16T04:46:04.694Z,7.55
2023-04-16T04:48:32.382Z,8.32
2023-04-16T04:50:59.775Z,8.07
2023-04-16T04:53:26.753Z,8.66
2023-04-16T04:55:57.604Z,8.42
2023-04-16T04:58:33.069Z,8.93
2023-04-16T05:01:00.080Z,8.22
2023-04-16T05:03:27.176Z,8.04
2023-04-16T05:05:54.226Z,8.75
2023-04-16T05:08:21.206Z,8.15
2023-04-16T05:10:48.292Z,7.79
2023-04-16T05:13:15.232Z,8.29
2023-04-16T05:15:42.280Z,8.42
2023-04-16T05:18:09.194Z,7.49
2023-04-16T05:20:37.845Z,8.01
2023-04-16T05:23:04.831Z,7.00
2023-04-16T05:25:31.857Z,7.66
2023-04-16T05:27:58.807Z,7.28
2023-04-16T05:30:25.862Z,7.98
2023-04-16T05:32:52.942Z,8.67
2023-04-16T05:35:20.023Z,8.85
2023-04-16T05:37:47.057Z,9.02
2023-04-16T05:40:14.304Z,8.72
2023-04-16T05:42:41.508Z,9.18
2023-04-16T05:45:08.992Z,8.50
2023-04-16T05:47:36.039Z,9.15
2023-04-16T05:50:03.027Z,9.03
2023-04-16T05:52:30.036Z,9.01
2023-04-16T05:54:58.172Z,8.92
2023-04-16T05:57:25.116Z,9.45
2023-04-16T05:59:52.069Z,9.56
2023-04-16T06:02:19.883Z,9.44
2023-04-16T06:04:47.013Z,8.68
2023-04-16T06:07:14.100Z,9.18
2023-04-16T06:09:41.361Z,9.28
2023-04-16T06:12:08.328Z,9.91
2023-04-16T06:14:35.858Z,10.06
2023-04-16T06:17:02.825Z,10.31
2023-04-16T06:19:29.808Z,10.14
2023-04-16T06:21:57.183Z,9.89
2023-04-16T06:24:24.221Z,10.28
2023-04-16T06:26:51.212Z,10.30
2023-04-16T06:29:18.159Z,10.34
2023-04-16T06:31:45.243Z,10.79
2023-04-16T06:34:12.553Z,10.72
2023-04-16T06:36:39.498Z,10.25
2023-04-16T06:39:06.698Z,10.43
2023-04-16T06:41:33.780Z,10.23
2023-04-16T06:44:00.789Z,10.63
2023-04-16T06:46:27.888Z,10.67
2023-04-16T06:48:54.923Z,11.07
2023-04-16T06:51:21.870Z,10.81
2023-04-16T06:53:49.378Z,10.73
2023-04-16T06:56:16.357Z,10.75
2023-04-16T06:58:43.349Z,10.80
2023-04-16T07:01:10.575Z,10.02
2023-04-16T07:03:37.911Z,10.71
2023-04-16T07:06:05.010Z,10.97
2023-04-16T07:08:31.994Z,10.98
2023-04-16T07:10:58.995Z,10.95
2023-04-16T07:13:26.081Z,10.72
2023-04-16T07:15:53.192Z,10.66
2023-04-16T07:18:20.868Z,10.85
2023-04-16T07:20:48.141Z,10.85
2023-04-16T07:23:15.069Z,11.17
2023-04-16T07:25:42.460Z,11.49
2023-04-16T07:28:09.514Z,11.23
2023-04-16T07:30:36.774Z,11.60
2023-04-16T07:33:03.881Z,11.65
2023-04-16T07:35:31.369Z,10.89
2023-04-16T07:37:58.333Z,11.30
2023-04-16T07:40:25.491Z,10.89
2023-04-16T07:42:52.491Z,10.98
2023-04-16T07:45:19.534Z,10.70
2023-04-16T07:47:46.656Z,11.16
2023-04-16T07:50:13.677Z,10.54
2023-04-16T07:52:42.492Z,9.99
2023-04-16T07:55:09.654Z,10.47
2023-04-16T07:57:36.608Z,11.32
2023-04-16T08:00:07.150Z,11.43
2023-04-16T08:02:43.821Z,11.67
2023-04-16T08:05:12.606Z,10.60
2023-04-16T08:07:39.662Z,9.84
2023-04-16T08:10:07.256Z,9.88
2023-04-16T08:12:34.339Z,10.91
2023-04-16T08:15:01.429Z,11.15
2023-04-16T08:17:29.610Z,11.74
2023-04-16T08:19:56.635Z,11.73
2023-04-16T08:22:23.618Z,12.11
2023-04-16T08:24:50.796Z,11.96
2023-04-16T08:27:19.866Z,11.90
2023-04-16T08:29:47.819Z,12.12
2023-04-16T08:32:14.788Z,12.16
2023-04-16T08:34:42.459Z,12.71
2023-04-16T08:37:09.812Z,11.95
2023-04-16T08:39:37.791Z,12.53
2023-04-16T08:42:05.671Z,11.99
2023-04-16T08:44:34.130Z,12.03
2023-04-16T08:47:01.443Z,11.86
2023-04-16T08:49:28.738Z,11.51
2023-04-16T08:51:56.389Z,11.72
2023-04-16T08:54:56.833Z,12.47
2023-04-16T08:57:24.283Z,12.38
2023-04-16T08:59:51.305Z,12.50
2023-04-16T09:02:18.364Z,12.69
2023-04-16T09:04:45.558Z,12.34
2023-04-16T09:07:12.624Z,12.31
2023-04-16T09:09:39.787Z,11.85
2023-04-16T09:12:06.725Z,12.78
2023-04-16T09:14:33.742Z,13.35
2023-04-16T09:17:02.415Z,13.40
2023-04-16T09:19:29.477Z,11.96
2023-04-16T09:21:56.467Z,11.95
2023-04-16T09:24:23.486Z,11.63
2023-04-16T09:26:52.704Z,11.36
2023-04-16T09:29:41.268Z,11.45
2023-04-16T09:32:09.503Z,12.14
2023-04-16T09:35:00.766Z,12.70
2023-04-16T09:37:31.777Z,12.42
2023-04-16T09:40:02.297Z,12.48
2023-04-16T09:42:33.325Z,11.72
2023-04-16T09:45:01.939Z,10.39
2023-04-16T09:47:44.499Z,11.09
2023-04-16T09:50:18.222Z,11.61
2023-04-16T09:52:48.918Z,10.93
2023-04-16T09:55:16.159Z,10.44
2023-04-16T09:57:43.135Z,10.00
2023-04-16T10:00:11.281Z,9.77
2023-04-16T10:02:42.788Z,10.39
2023-04-16T10:05:10.333Z,11.18
2023-04-16T10:07:37.839Z,11.70
2023-04-16T10:10:05.506Z,12.41
2023-04-16T10:12:35.738Z,12.90
2023-04-16T10:15:02.818Z,13.38
2023-04-16T10:17:30.463Z,13.76
2023-04-16T10:19:58.722Z,13.79
2023-04-16T10:22:26.220Z,13.23
2023-04-16T10:24:53.466Z,13.18
2023-04-16T10:27:20.451Z,13.42
2023-04-16T10:29:47.442Z,13.41
2023-04-16T10:32:14.735Z,13.68
2023-04-16T10:34:41.795Z,13.77
2023-04-16T10:37:08.797Z,13.75
2023-04-16T10:39:38.873Z,12.25
2023-04-16T10:42:08.934Z,12.55
2023-04-16T10:44:36.666Z,12.15
2023-04-16T10:47:03.948Z,10.65
2023-04-16T10:49:30.958Z,11.56
2023-04-16T10:51:59.768Z,11.14
2023-04-16T10:54:34.296Z,11.30
2023-04-16T10:57:04.559Z,11.76
2023-04-16T10:59:33.554Z,12.16
2023-04-16T11:02:04.313Z,13.05
2023-04-16T11:04:35.856Z,12.02
2023-04-16T11:07:11.747Z,12.50
2023-04-16T11:09:49.725Z,13.07
2023-04-16T11:12:21.561Z,11.64
2023-04-16T11:14:52.805Z,11.90
2023-04-16T11:17:20.488Z,12.48
2023-04-16T11:19:47.746Z,13.26
2023-04-16T11:22:17.189Z,13.57
2023-04-16T11:24:47.497Z,13.85
2023-04-16T11:27:15.264Z,13.62
2023-04-16T11:29:42.440Z,12.75
2023-04-16T11:32:09.430Z,12.94
2023-04-16T11:34:44.899Z,12.74
2023-04-16T11:37:12.046Z,12.84
2023-04-16T11:39:52.095Z,12.32
2023-04-16T11:42:27.009Z,11.89
2023-04-16T11:44:58.241Z,11.71
2023-04-16T11:47:25.585Z,11.86
2023-04-16T11:49:53.038Z,12.47
2023-04-16T11:52:32.900Z,12.92
2023-04-16T11:54:59.936Z,13.37
2023-04-16T11:57:30.964Z,13.30
2023-04-16T12:00:01.475Z,13.72
2023-04-16T12:02:41.123Z,13.75
2023-04-16T12:05:29.359Z,13.60
2023-04-16T12:07:59.446Z,13.57
2023-04-16T12:10:27.185Z,12.16
2023-04-16T12:12:54.206Z,12.15
2023-04-16T12:15:21.497Z,12.61
2023-04-16T12:17:48.857Z,13.51
2023-04-16T12:20:16.345Z,12.85
2023-04-16T12:22:47.468Z,12.17
2023-04-16T12:25:15.643Z,12.60
2023-04-16T12:27:49.473Z,12.38
2023-04-16T12:30:27.749Z,10.96
2023-04-16T12:33:14.641Z,12.08
2023-04-16T12:35:43.462Z,13.25
2023-04-16T12:38:10.841Z,13.77
2023-04-16T12:40:38.403Z,14.08
2023-04-16T12:43:05.584Z,13.99
2023-04-16T12:45:32.601Z,13.15
2023-04-16T12:47:59.588Z,13.74
2023-04-16T12:50:26.683Z,13.42
2023-04-16T12:52:53.604Z,14.49
2023-04-16T12:55:20.757Z,13.37
2023-04-16T12:57:49.083Z,13.17
2023-04-16T13:00:16.457Z,14.09
2023-04-16T13:02:43.470Z,14.69
2023-04-16T13:05:10.856Z,14.50
2023-04-16T13:07:37.786Z,14.96
2023-04-16T13:10:06.093Z,15.23
2023-04-16T13:12:33.110Z,14.81
2023-04-16T13:15:00.077Z,14.36
2023-04-16T13:17:27.058Z,14.39
2023-04-16T13:19:54.077Z,14.28
2023-04-16T13:22:21.073Z,14.93
2023-04-16T13:24:48.305Z,15.10
2023-04-16T13:27:16.178Z,14.81
2023-04-16T13:29:43.296Z,14.96
2023-04-16T13:32:10.306Z,15.24
2023-04-16T13:34:37.354Z,15.39
2023-04-16T13:37:04.662Z,15.53
2023-04-16T13:39:31.678Z,15.42
2023-04-16T13:41:58.686Z,15.07
2023-04-16T13:44:25.680Z,15.03
2023-04-16T13:46:52.936Z,15.51
2023-04-16T13:49:19.978Z,15.59
2023-04-16T13:51:47.018Z,15.59
2023-04-16T13:54:13.994Z,15.33
2023-04-16T13:56:40.960Z,15.19
2023-04-16T13:59:08.286Z,15.60
2023-04-16T14:01:35.463Z,15.62
2023-04-16T14:04:06.761Z,15.65
2023-04-16T14:06:34.551Z,13.99
2023-04-16T14:09:01.968Z,13.60
2023-04-16T14:11:29.033Z,13.22
2023-04-16T14:13:56.242Z,13.53
2023-04-16T14:16:23.464Z,13.84
2023-04-16T14:18:52.060Z,13.75
2023-04-16T14:21:19.221Z,13.80
2023-04-16T14:23:46.847Z,14.01
2023-04-16T14:26:14.553Z,14.08
2023-04-16T14:28:41.992Z,14.27
2023-04-16T14:31:09.149Z,13.98
2023-04-16T14:33:36.975Z,14.47
2023-04-16T14:36:04.347Z,14.32
2023-04-16T14:38:31.409Z,14.20
2023-04-16T14:41:00.355Z,14.87
2023-04-16T14:43:27.480Z,12.83
2023-04-16T14:45:54.527Z,12.19
2023-04-16T14:48:22.169Z,11.95
2023-04-16T14:50:49.322Z,12.95
2023-04-16T14:53:16.363Z,13.36
2023-04-16T14:55:43.357Z,14.08
2023-04-16T14:58:10.839Z,14.55
2023-04-16T15:00:37.937Z,14.78
2023-04-16T15:03:06.065Z,13.73
2023-04-16T15:05:33.307Z,13.98
2023-04-16T15:08:00.748Z,14.64
2023-04-16T15:10:27.878Z,13.76
2023-04-16T15:12:54.914Z,12.74
2023-04-16T15:15:21.949Z,12.30
2023-04-16T15:17:50.473Z,12.75
2023-04-16T15:20:17.662Z,13.45
2023-04-16T15:22:44.706Z,14.07
2023-04-16T15:25:11.753Z,12.09
2023-04-16T15:27:38.754Z,11.82
2023-04-16T15:30:06.916Z,11.85
2023-04-16T15:32:33.926Z,12.69
2023-04-16T15:35:03.053Z,12.60
2023-04-16T15:37:30.045Z,13.22
2023-04-16T15:39:57.421Z,12.98
2023-04-16T15:42:24.743Z,13.13
2023-04-16T15:44:51.777Z,13.38
2023-04-16T15:47:18.927Z,13.09
2023-04-16T15:49:45.967Z,12.93
2023-04-16T15:52:13.022Z,13.07
2023-04-16T15:54:40.001Z,13.38
2023-04-16T15:57:07.002Z,13.90
2023-04-16T15:59:34.002Z,13.24
2023-04-16T16:02:01.416Z,13.50
2023-04-16T16:04:28.703Z,13.56
2023-04-16T16:06:56.331Z,13.54
2023-04-16T16:09:26.812Z,14.18
2023-04-16T16:11:58.901Z,13.94
2023-04-16T16:14:26.906Z,14.03
2023-04-16T16:16:53.977Z,13.78
2023-04-16T16:19:21.271Z,13.54
2023-04-16T16:21:48.214Z,12.66
2023-04-16T16:24:15.662Z,13.37
2023-04-16T16:26:42.656Z,12.51
2023-04-16T16:29:09.909Z,12.42
2023-04-16T16:31:37.219Z,13.24
2023-04-16T16:34:04.312Z,12.28
2023-04-16T16:36:34.224Z,12.07
2023-04-16T16:39:01.986Z,12.30
2023-04-16T16:41:29.890Z,13.31
2023-04-16T16:43:58.228Z,13.63
2023-04-16T16:46:26.535Z,13.48
2023-04-16T16:48:53.625Z,13.00
2023-04-16T16:51:20.717Z,13.45
2023-04-16T16:53:47.868Z,13.51
2023-04-16T16:56:14.864Z,13.26
2023-04-16T16:58:42.066Z,14.16
2023-04-16T17:01:09.256Z,14.12
2023-04-16T17:03:36.519Z,14.50
2023-04-16T17:06:03.727Z,13.69
2023-04-16T17:08:30.834Z,14.18
2023-04-16T17:10:58.057Z,14.03
2023-04-16T17:13:25.370Z,13.74
2023-04-16T17:15:52.474Z,14.02
2023-04-16T17:18:19.562Z,14.50
2023-04-16T17:20:46.929Z,13.35
2023-04-16T17:23:14.878Z,13.95
2023-04-16T17:25:41.995Z,14.16
2023-04-16T17:28:09.058Z,14.63
2023-04-16T17:30:36.149Z,14.79
2023-04-16T17:33:04.756Z,15.10
2023-04-16T17:35:32.022Z,15.22
2023-04-16T17:37:59.038Z,15.37
2023-04-16T17:40:26.247Z,15.22
2023-04-16T17:42:53.377Z,15.10
2023-04-16T17:45:20.464Z,15.10
2023-04-16T17:47:47.612Z,15.07
2023-04-16T17:50:14.668Z,15.29
2023-04-16T17:52:42.010Z,15.31
2023-04-16T17:55:10.968Z,15.28
2023-04-16T17:57:38.008Z,15.52
2023-04-16T18:00:06.504Z,15.55
2023-04-16T18:02:42.118Z,15.50
2023-04-16T18:05:09.612Z,15.36
2023-04-16T18:07:37.707Z,15.05
2023-04-16T18:10:05.608Z,15.20
2023-04-16T18:12:32.798Z,15.32
2023-04-16T18:14:59.935Z,15.30
2023-04-16T18:17:28.357Z,15.12
2023-04-16T18:19:56.375Z,15.05
2023-04-16T18:22:24.341Z,14.97
2023-04-16T18:24:52.641Z,14.93
2023-04-16T18:27:21.579Z,14.80
2023-04-16T18:29:49.501Z,14.62
2023-04-16T18:32:17.033Z,14.59
2023-04-16T18:34:44.312Z,14.58
2023-04-16T18:37:11.456Z,14.91
2023-04-16T18:39:38.532Z,14.69
2023-04-16T18:42:05.792Z,14.84
2023-04-16T18:44:32.869Z,14.59
2023-04-16T18:47:00.051Z,14.52
2023-04-16T18:49:27.292Z,14.24
2023-04-16T18:51:56.010Z,14.22
2023-04-16T18:54:23.190Z,14.12
2023-04-16T18:56:50.468Z,14.09
2023-04-16T18:59:17.550Z,14.09
2023-04-16T19:01:44.653Z,13.99
2023-04-16T19:04:11.731Z,13.88
2023-04-16T19:06:38.829Z,13.92
2023-04-16T19:09:06.165Z,14.03
2023-04-16T19:11:33.235Z,14.21
2023-04-16T19:14:02.483Z,14.16
2023-04-16T19:16:29.809Z,14.07
2023-04-16T19:18:56.888Z,14.03
2023-04-16T19:21:24.005Z,13.70
2023-04-16T19:23:51.111Z,13.55
2023-04-16T19:26:18.283Z,13.41
2023-04-16T19:28:46.132Z,13.35
2023-04-16T19:31:13.282Z,13.09
2023-04-16T19:33:41.358Z,12.91
2023-04-16T19:36:08.447Z,12.69
2023-04-16T19:38:36.585Z,12.56
2023-04-16T19:41:03.686Z,12.34
2023-04-16T19:43:31.222Z,12.20
2023-04-16T19:45:58.369Z,11.86
2023-04-16T19:48:25.842Z,11.83
2023-04-16T19:50:52.969Z,12.04
2023-04-16T19:53:21.149Z,12.18
2023-04-16T19:55:48.360Z,12.31
2023-04-16T19:58:15.622Z,12.54
2023-04-16T20:00:43.424Z,12.73
2023-04-16T20:03:10.910Z,12.81
2023-04-16T20:05:38.026Z,12.75
2023-04-16T20:08:05.477Z,12.88
2023-04-16T20:10:32.440Z,13.05
2023-04-16T20:12:59.546Z,13.05
2023-04-16T20:15:26.626Z,13.05
2023-04-16T20:17:53.786Z,13.20
2023-04-16T20:20:22.813Z,13.04
2023-04-16T20:22:50.045Z,12.73
2023-04-16T20:25:19.162Z,12.57
2023-04-16T20:27:46.366Z,12.46
2023-04-16T20:30:13.881Z,12.14
2023-04-16T20:32:40.973Z,11.78
2023-04-16T20:35:10.940Z,11.76
2023-04-16T20:37:38.689Z,11.77
2023-04-16T20:40:08.414Z,11.82
2023-04-16T20:42:35.659Z,11.65
2023-04-16T20:45:02.761Z,11.37
2023-04-16T20:47:29.935Z,11.10
2023-04-16T20:49:58.288Z,11.76
2023-04-16T20:52:25.472Z,12.01
2023-04-16T20:54:52.571Z,11.97
2023-04-16T20:57:19.551Z,11.94
2023-04-16T20:59:46.801Z,12.05
2023-04-16T21:02:13.878Z,12.08
2023-04-16T21:04:41.257Z,11.96
2023-04-16T21:07:08.316Z,11.70
2023-04-16T21:09:35.791Z,11.82
2023-04-16T21:12:02.838Z,11.89
2023-04-16T21:14:29.753Z,11.76
2023-04-16T21:16:57.027Z,11.85
2023-04-16T21:19:24.058Z,12.04
2023-04-16T21:21:51.339Z,12.12
2023-04-16T21:24:18.362Z,12.14
2023-04-16T21:26:45.334Z,12.19
2023-04-16T21:29:12.716Z,12.35
2023-04-16T21:31:39.941Z,12.36
2023-04-16T21:34:07.148Z,12.29
2023-04-16T21:36:34.246Z,12.10
2023-04-16T21:39:01.539Z,12.05
2023-04-16T21:41:28.633Z,11.97
2023-04-16T21:43:55.822Z,12.05
2023-04-16T21:46:23.139Z,12.34
2023-04-16T21:48:50.853Z,12.32
2023-04-16T21:51:18.126Z,12.39
2023-04-16T21:53:45.160Z,12.26
2023-04-16T21:56:12.154Z,12.38
2023-04-16T21:58:39.104Z,12.23
2023-04-16T22:01:07.748Z,12.36
2023-04-16T22:03:40.223Z,12.46
2023-04-16T22:06:07.704Z,12.30
2023-04-16T22:08:34.850Z,12.06
2023-04-16T22:11:02.557Z,11.97
2023-04-16T22:13:30.141Z,12.01
2023-04-16T22:15:57.791Z,12.11
2023-04-16T22:18:25.817Z,12.20
2023-04-16T22:20:54.794Z,12.32
2023-04-16T22:23:25.132Z,12.18
2023-04-16T22:25:53.868Z,12.01
2023-04-16T22:28:20.894Z,11.53
2023-04-16T22:30:47.898Z,11.53
2023-04-16T22:33:15.104Z,11.77
2023-04-16T22:35:42.226Z,12.08
2023-04-16T22:38:10.204Z,12.07
2023-04-16T22:40:37.223Z,11.82
2023-04-16T22:43:04.639Z,11.82
2023-04-16T22:45:31.726Z,12.13
2023-04-16T22:47:58.800Z,12.18
2023-04-16T22:50:25.956Z,12.10
2023-04-16T22:52:52.907Z,12.08
2023-04-16T22:55:19.958Z,11.96
2023-04-16T22:57:47.690Z,11.66
2023-04-16T23:00:17.905Z,11.32
2023-04-16T23:02:45.230Z,11.19
2023-04-16T23:05:12.446Z,11.00
2023-04-16T23:07:39.960Z,10.94
2023-04-16T23:10:08.662Z,10.75
2023-04-16T23:12:37.551Z,10.71
2023-04-16T23:15:06.766Z,11.18
2023-04-16T23:17:35.115Z,11.03
2023-04-16T23:20:02.556Z,11.32
2023-04-16T23:22:29.668Z,11.01
2023-04-16T23:24:56.709Z,10.93
2023-04-16T23:27:23.964Z,10.69
2023-04-16T23:29:50.996Z,10.82
2023-04-16T23:32:18.069Z,10.87
2023-04-16T23:34:45.191Z,11.14
2023-04-16T23:37:12.132Z,11.34
2023-04-16T23:39:39.160Z,11.21
2023-04-16T23:42:06.396Z,11.12
2023-04-16T23:44:33.405Z,11.07
2023-04-16T23:47:00.570Z,11.09
2023-04-16T23:49:27.623Z,11.15
2023-04-16T23:51:54.681Z,11.45
2023-04-16T23:54:22.014Z,10.93
2023-04-16T23:56:49.099Z,11.04
2023-04-16T23:59:16.842Z,11.36
